sensor_id;sensor_type;location;lat;lon;timestamp;temperature;humidity
2767;DHT22;1391;46.74287300;11.63683300;2023-07-29T00:02:09;16.20;99.90
2767;DHT22;1391;46.74287300;11.63683300;2023-07-29T00:04:38;16.00;99.90
2767;DHT22;1391;46.74287300;11.63683300;2023-07-29T00:07:05;16.20;99.90
2767;DHT22;1391;46.74287300;11.63683300;2023-07-29T00:09:32;16.00;99.90
2767;DHT22;1391;46.74287300;11.63683300;2023-07-29T00:11:59;16.00;99.90
2767;DHT22;1391;46.74287300;11.63683300;2023-07-29T00:14:26;16.10;99.90
2767;DHT22;1391;46.74287300;11.63683300;2023-07-29T00:16:54;15.90;99.90
2767;DHT22;1391;46.74287300;11.63683300;2023-07-29T00:19:21;16.20;99.90
2767;DHT22;1391;46.74287300;11.63683300;2023-07-29T00:21:50;16.00;99.90
2767;DHT22;1391;46.74287300;11.63683300;2023-07-29T00:24:17;16.10;99.90
2767;DHT22;1391;46.74287300;11.63683300;2023-07-29T00:26:44;15.80;99.90
2767;DHT22;1391;46.74287300;11.63683300;2023-07-29T00:29:11;15.80;99.90
2767;DHT22;1391;46.74287300;11.63683300;2023-07-29T00:31:38;15.80;99.90
2767;DHT22;1391;46.74287300;11.63683300;2023-07-29T00:34:06;15.80;99.90
2767;DHT22;1391;46.74287300;11.63683300;2023-07-29T00:36:33;15.90;99.90
2767;DHT22;1391;46.74287300;11.63683300;2023-07-29T00:39:01;15.90;99.90
2767;DHT22;1391;46.74287300;11.63683300;2023-07-29T00:41:28;15.80;99.90
2767;DHT22;1391;46.74287300;11.63683300;2023-07-29T00:43:56;15.90;99.90
2767;DHT22;1391;46.74287300;11.63683300;2023-07-29T00:46:23;15.80;99.90
2767;DHT22;1391;46.74287300;11.63683300;2023-07-29T00:48:51;15.80;99.90
2767;DHT22;1391;46.74287300;11.63683300;2023-07-29T00:51:18;15.80;99.90
2767;DHT22;1391;46.74287300;11.63683300;2023-07-29T00:53:46;15.80;99.90
2767;DHT22;1391;46.74287300;11.63683300;2023-07-29T00:56:14;15.80;99.90
2767;DHT22;1391;46.74287300;11.63683300;2023-07-29T00:58:42;15.80;99.90
2767;DHT22;1391;46.74287300;11.63683300;2023-07-29T01:01:09;15.80;99.90
2767;DHT22;1391;46.74287300;11.63683300;2023-07-29T01:03:36;15.90;99.90
2767;DHT22;1391;46.74287300;11.63683300;2023-07-29T01:06:09;15.80;99.90
2767;DHT22;1391;46.74287300;11.63683300;2023-07-29T01:08:45;15.80;99.90
2767;DHT22;1391;46.74287300;11.63683300;2023-07-29T01:11:24;15.80;99.90
2767;DHT22;1391;46.74287300;11.63683300;2023-07-29T01:14:04;15.70;99.90
2767;DHT22;1391;46.74287300;11.63683300;2023-07-29T01:16:39;15.80;99.90
2767;DHT22;1391;46.74287300;11.63683300;2023-07-29T01:19:16;15.90;99.90
2767;DHT22;1391;46.74287300;11.63683300;2023-07-29T01:21:54;15.30;99.90
2767;DHT22;1391;46.74287300;11.63683300;2023-07-29T01:24:23;15.50;99.90
2767;DHT22;1391;46.74287300;11.63683300;2023-07-29T01:26:50;15.40;99.90
2767;DHT22;1391;46.74287300;11.63683300;2023-07-29T01:29:17;15.50;99.90
2767;DHT22;1391;46.74287300;11.63683300;2023-07-29T01:31:45;15.40;99.90
2767;DHT22;1391;46.74287300;11.63683300;2023-07-29T01:34:20;15.40;99.90
2767;DHT22;1391;46.74287300;11.63683300;2023-07-29T01:36:51;15.50;99.90
2767;DHT22;1391;46.74287300;11.63683300;2023-07-29T01:39:20;15.30;99.90
2767;DHT22;1391;46.74287300;11.63683300;2023-07-29T01:41:49;15.40;99.90
2767;DHT22;1391;46.74287300;11.63683300;2023-07-29T01:44:18;15.60;99.90
2767;DHT22;1391;46.74287300;11.63683300;2023-07-29T01:46:46;15.30;99.90
2767;DHT22;1391;46.74287300;11.63683300;2023-07-29T01:49:13;15.50;99.90
2767;DHT22;1391;46.74287300;11.63683300;2023-07-29T01:51:41;15.30;99.90
2767;DHT22;1391;46.74287300;11.63683300;2023-07-29T01:54:09;15.60;99.90
2767;DHT22;1391;46.74287300;11.63683300;2023-07-29T01:56:37;15.60;99.90
2767;DHT22;1391;46.74287300;11.63683300;2023-07-29T01:59:04;15.60;99.90
2767;DHT22;1391;46.74287300;11.63683300;2023-07-29T02:01:32;15.50;99.90
2767;DHT22;1391;46.74287300;11.63683300;2023-07-29T02:03:59;15.20;99.90
2767;DHT22;1391;46.74287300;11.63683300;2023-07-29T02:06:26;15.60;99.90
2767;DHT22;1391;46.74287300;11.63683300;2023-07-29T02:08:55;15.50;99.90
2767;DHT22;1391;46.74287300;11.63683300;2023-07-29T02:11:22;15.30;99.90
2767;DHT22;1391;46.74287300;11.63683300;2023-07-29T02:13:54;15.50;99.90
2767;DHT22;1391;46.74287300;11.63683300;2023-07-29T02:16:21;15.30;99.90
2767;DHT22;1391;46.74287300;11.63683300;2023-07-29T02:18:49;15.40;99.90
2767;DHT22;1391;46.74287300;11.63683300;2023-07-29T02:21:16;15.70;99.90
2767;DHT22;1391;46.74287300;11.63683300;2023-07-29T02:23:43;15.30;99.90
2767;DHT22;1391;46.74287300;11.63683300;2023-07-29T02:26:11;15.40;99.90
2767;DHT22;1391;46.74287300;11.63683300;2023-07-29T02:28:38;15.50;99.90
2767;DHT22;1391;46.74287300;11.63683300;2023-07-29T02:31:17;15.20;99.90
2767;DHT22;1391;46.74287300;11.63683300;2023-07-29T02:33:47;15.20;99.90
2767;DHT22;1391;46.74287300;11.63683300;2023-07-29T02:36:15;15.30;99.90
2767;DHT22;1391;46.74287300;11.63683300;2023-07-29T02:38:42;15.50;99.90
2767;DHT22;1391;46.74287300;11.63683300;2023-07-29T02:41:10;15.30;99.90
2767;DHT22;1391;46.74287300;11.63683300;2023-07-29T02:43:38;15.10;99.90
2767;DHT22;1391;46.74287300;11.63683300;2023-07-29T02:46:06;15.00;99.90
2767;DHT22;1391;46.74287300;11.63683300;2023-07-29T02:48:35;14.90;99.90
2767;DHT22;1391;46.74287300;11.63683300;2023-07-29T02:51:02;15.20;99.90
2767;DHT22;1391;46.74287300;11.63683300;2023-07-29T02:53:29;14.90;99.90
2767;DHT22;1391;46.74287300;11.63683300;2023-07-29T02:55:56;15.50;99.90
2767;DHT22;1391;46.74287300;11.63683300;2023-07-29T02:58:24;15.40;99.90
2767;DHT22;1391;46.74287300;11.63683300;2023-07-29T03:00:51;15.50;99.90
2767;DHT22;1391;46.74287300;11.63683300;2023-07-29T03:03:19;15.00;99.90
2767;DHT22;1391;46.74287300;11.63683300;2023-07-29T03:05:47;15.30;99.90
2767;DHT22;1391;46.74287300;11.63683300;2023-07-29T03:08:14;15.50;99.90
2767;DHT22;1391;46.74287300;11.63683300;2023-07-29T03:10:41;15.30;99.90
2767;DHT22;1391;46.74287300;11.63683300;2023-07-29T03:13:08;15.50;99.90
2767;DHT22;1391;46.74287300;11.63683300;2023-07-29T03:15:36;15.30;99.90
2767;DHT22;1391;46.74287300;11.63683300;2023-07-29T03:18:03;15.50;99.90
2767;DHT22;1391;46.74287300;11.63683300;2023-07-29T03:20:30;15.30;99.90
2767;DHT22;1391;46.74287300;11.63683300;2023-07-29T03:22:59;15.50;99.90
2767;DHT22;1391;46.74287300;11.63683300;2023-07-29T03:25:26;15.00;99.90
2767;DHT22;1391;46.74287300;11.63683300;2023-07-29T03:27:54;14.90;99.90
2767;DHT22;1391;46.74287300;11.63683300;2023-07-29T03:30:22;15.10;99.90
2767;DHT22;1391;46.74287300;11.63683300;2023-07-29T03:32:50;15.00;99.90
2767;DHT22;1391;46.74287300;11.63683300;2023-07-29T03:35:17;14.90;99.90
2767;DHT22;1391;46.74287300;11.63683300;2023-07-29T03:37:44;15.60;99.90
2767;DHT22;1391;46.74287300;11.63683300;2023-07-29T03:40:14;15.40;99.90
2767;DHT22;1391;46.74287300;11.63683300;2023-07-29T03:42:41;15.60;99.90
2767;DHT22;1391;46.74287300;11.63683300;2023-07-29T03:45:09;15.40;99.90
2767;DHT22;1391;46.74287300;11.63683300;2023-07-29T03:47:37;15.50;99.90
2767;DHT22;1391;46.74287300;11.63683300;2023-07-29T03:50:05;15.40;99.90
2767;DHT22;1391;46.74287300;11.63683300;2023-07-29T03:52:33;15.60;99.90
2767;DHT22;1391;46.74287300;11.63683300;2023-07-29T03:55:00;15.50;99.90
2767;DHT22;1391;46.74287300;11.63683300;2023-07-29T03:57:28;15.40;99.90
2767;DHT22;1391;46.74287300;11.63683300;2023-07-29T03:59:56;15.60;99.90
2767;DHT22;1391;46.74287300;11.63683300;2023-07-29T04:02:23;15.60;99.90
2767;DHT22;1391;46.74287300;11.63683300;2023-07-29T04:04:50;15.40;99.90
2767;DHT22;1391;46.74287300;11.63683300;2023-07-29T04:07:17;15.20;99.90
2767;DHT22;1391;46.74287300;11.63683300;2023-07-29T04:09:44;15.30;99.90
2767;DHT22;1391;46.74287300;11.63683300;2023-07-29T04:12:12;15.50;99.90
2767;DHT22;1391;46.74287300;11.63683300;2023-07-29T04:14:41;15.40;99.90
2767;DHT22;1391;46.74287300;11.63683300;2023-07-29T04:17:08;15.50;99.90
2767;DHT22;1391;46.74287300;11.63683300;2023-07-29T04:19:35;15.30;99.90
2767;DHT22;1391;46.74287300;11.63683300;2023-07-29T04:22:03;15.40;99.90
2767;DHT22;1391;46.74287300;11.63683300;2023-07-29T04:24:30;15.60;99.90
2767;DHT22;1391;46.74287300;11.63683300;2023-07-29T04:26:57;15.40;99.90
2767;DHT22;1391;46.74287300;11.63683300;2023-07-29T04:29:25;15.50;99.90
2767;DHT22;1391;46.74287300;11.63683300;2023-07-29T04:31:53;15.30;99.90
2767;DHT22;1391;46.74287300;11.63683300;2023-07-29T04:34:20;15.40;99.90
2767;DHT22;1391;46.74287300;11.63683300;2023-07-29T04:36:48;15.50;99.90
2767;DHT22;1391;46.74287300;11.63683300;2023-07-29T04:39:15;15.30;99.90
2767;DHT22;1391;46.74287300;11.63683300;2023-07-29T04:41:43;15.40;99.90
2767;DHT22;1391;46.74287300;11.63683300;2023-07-29T04:44:10;15.60;99.90
2767;DHT22;1391;46.74287300;11.63683300;2023-07-29T04:46:37;15.40;99.90
2767;DHT22;1391;46.74287300;11.63683300;2023-07-29T04:49:06;15.60;99.90
2767;DHT22;1391;46.74287300;11.63683300;2023-07-29T04:51:33;15.40;99.90
2767;DHT22;1391;46.74287300;11.63683300;2023-07-29T04:54:02;15.60;99.90
2767;DHT22;1391;46.74287300;11.63683300;2023-07-29T04:56:30;15.40;99.90
2767;DHT22;1391;46.74287300;11.63683300;2023-07-29T04:58:57;15.70;99.90
2767;DHT22;1391;46.74287300;11.63683300;2023-07-29T05:01:25;15.70;99.90
2767;DHT22;1391;46.74287300;11.63683300;2023-07-29T05:03:52;15.70;99.90
2767;DHT22;1391;46.74287300;11.63683300;2023-07-29T05:06:20;15.80;99.90
2767;DHT22;1391;46.74287300;11.63683300;2023-07-29T05:08:48;15.80;99.90
2767;DHT22;1391;46.74287300;11.63683300;2023-07-29T05:11:15;15.90;99.90
2767;DHT22;1391;46.74287300;11.63683300;2023-07-29T05:13:42;15.80;99.90
2767;DHT22;1391;46.74287300;11.63683300;2023-07-29T05:16:09;15.80;99.90
2767;DHT22;1391;46.74287300;11.63683300;2023-07-29T05:18:36;15.80;99.90
2767;DHT22;1391;46.74287300;11.63683300;2023-07-29T05:21:04;15.80;99.90
2767;DHT22;1391;46.74287300;11.63683300;2023-07-29T05:23:33;15.80;99.90
2767;DHT22;1391;46.74287300;11.63683300;2023-07-29T05:26:00;15.90;99.90
2767;DHT22;1391;46.74287300;11.63683300;2023-07-29T05:28:28;15.40;99.90
2767;DHT22;1391;46.74287300;11.63683300;2023-07-29T05:30:55;15.70;99.90
2767;DHT22;1391;46.74287300;11.63683300;2023-07-29T05:33:22;15.80;99.90
2767;DHT22;1391;46.74287300;11.63683300;2023-07-29T05:35:50;15.90;99.90
2767;DHT22;1391;46.74287300;11.63683300;2023-07-29T05:38:17;15.80;99.90
2767;DHT22;1391;46.74287300;11.63683300;2023-07-29T05:40:48;15.80;99.90
2767;DHT22;1391;46.74287300;11.63683300;2023-07-29T05:43:15;15.80;99.90
2767;DHT22;1391;46.74287300;11.63683300;2023-07-29T05:45:43;15.90;99.90
2767;DHT22;1391;46.74287300;11.63683300;2023-07-29T05:48:10;16.20;99.90
2767;DHT22;1391;46.74287300;11.63683300;2023-07-29T05:50:37;15.90;99.90
2767;DHT22;1391;46.74287300;11.63683300;2023-07-29T05:53:04;16.20;99.90
2767;DHT22;1391;46.74287300;11.63683300;2023-07-29T05:55:31;16.30;99.90
2767;DHT22;1391;46.74287300;11.63683300;2023-07-29T05:58:00;16.70;99.90
2767;DHT22;1391;46.74287300;11.63683300;2023-07-29T06:00:27;16.70;99.90
2767;DHT22;1391;46.74287300;11.63683300;2023-07-29T06:02:54;16.70;99.90
2767;DHT22;1391;46.74287300;11.63683300;2023-07-29T06:05:21;16.70;99.90
2767;DHT22;1391;46.74287300;11.63683300;2023-07-29T06:07:48;16.70;99.90
2767;DHT22;1391;46.74287300;11.63683300;2023-07-29T06:10:18;16.60;99.90
2767;DHT22;1391;46.74287300;11.63683300;2023-07-29T06:12:46;16.40;99.90
2767;DHT22;1391;46.74287300;11.63683300;2023-07-29T06:15:14;16.40;99.90
2767;DHT22;1391;46.74287300;11.63683300;2023-07-29T06:17:42;16.80;99.90
2767;DHT22;1391;46.74287300;11.63683300;2023-07-29T06:20:10;16.40;99.90
2767;DHT22;1391;46.74287300;11.63683300;2023-07-29T06:22:37;17.20;99.90
2767;DHT22;1391;46.74287300;11.63683300;2023-07-29T06:25:05;17.10;99.90
2767;DHT22;1391;46.74287300;11.63683300;2023-07-29T06:27:32;17.30;99.90
2767;DHT22;1391;46.74287300;11.63683300;2023-07-29T06:29:59;17.30;99.90
2767;DHT22;1391;46.74287300;11.63683300;2023-07-29T06:32:29;17.30;99.90
2767;DHT22;1391;46.74287300;11.63683300;2023-07-29T06:34:56;16.90;99.90
2767;DHT22;1391;46.74287300;11.63683300;2023-07-29T06:37:23;17.10;99.90
2767;DHT22;1391;46.74287300;11.63683300;2023-07-29T06:39:50;17.40;99.90
2767;DHT22;1391;46.74287300;11.63683300;2023-07-29T06:42:17;17.00;99.90
2767;DHT22;1391;46.74287300;11.63683300;2023-07-29T06:44:45;17.20;99.90
2767;DHT22;1391;46.74287300;11.63683300;2023-07-29T06:47:12;17.10;99.90
2767;DHT22;1391;46.74287300;11.63683300;2023-07-29T06:49:41;17.80;99.90
2767;DHT22;1391;46.74287300;11.63683300;2023-07-29T06:52:08;17.90;99.90
2767;DHT22;1391;46.74287300;11.63683300;2023-07-29T06:54:35;17.80;99.90
2767;DHT22;1391;46.74287300;11.63683300;2023-07-29T06:57:03;17.90;99.90
2767;DHT22;1391;46.74287300;11.63683300;2023-07-29T06:59:30;18.30;99.90
2767;DHT22;1391;46.74287300;11.63683300;2023-07-29T07:01:57;18.40;99.90
2767;DHT22;1391;46.74287300;11.63683300;2023-07-29T07:04:25;18.50;99.90
2767;DHT22;1391;46.74287300;11.63683300;2023-07-29T07:06:54;18.70;99.90
2767;DHT22;1391;46.74287300;11.63683300;2023-07-29T07:09:21;19.00;99.90
2767;DHT22;1391;46.74287300;11.63683300;2023-07-29T07:11:48;18.80;99.90
2767;DHT22;1391;46.74287300;11.63683300;2023-07-29T07:14:16;18.80;99.90
2767;DHT22;1391;46.74287300;11.63683300;2023-07-29T07:16:43;18.50;99.90
2767;DHT22;1391;46.74287300;11.63683300;2023-07-29T07:19:11;18.40;99.90
2767;DHT22;1391;46.74287300;11.63683300;2023-07-29T07:21:38;18.50;99.90
2767;DHT22;1391;46.74287300;11.63683300;2023-07-29T07:24:07;18.80;99.90
2767;DHT22;1391;46.74287300;11.63683300;2023-07-29T07:26:34;18.90;99.90
2767;DHT22;1391;46.74287300;11.63683300;2023-07-29T07:29:02;19.00;99.90
2767;DHT22;1391;46.74287300;11.63683300;2023-07-29T07:31:33;18.80;99.00
2767;DHT22;1391;46.74287300;11.63683300;2023-07-29T07:34:01;18.30;99.90
2767;DHT22;1391;46.74287300;11.63683300;2023-07-29T07:36:29;18.40;99.90
2767;DHT22;1391;46.74287300;11.63683300;2023-07-29T07:38:57;18.90;98.70
2767;DHT22;1391;46.74287300;11.63683300;2023-07-29T07:41:25;19.60;95.50
2767;DHT22;1391;46.74287300;11.63683300;2023-07-29T07:43:52;19.60;95.50
2767;DHT22;1391;46.74287300;11.63683300;2023-07-29T07:46:20;19.60;95.00
2767;DHT22;1391;46.74287300;11.63683300;2023-07-29T07:48:47;19.80;95.20
2767;DHT22;1391;46.74287300;11.63683300;2023-07-29T07:51:15;20.20;95.10
2767;DHT22;1391;46.74287300;11.63683300;2023-07-29T07:53:42;20.40;92.60
2767;DHT22;1391;46.74287300;11.63683300;2023-07-29T07:56:09;20.30;93.00
2767;DHT22;1391;46.74287300;11.63683300;2023-07-29T07:58:38;20.20;84.20
2767;DHT22;1391;46.74287300;11.63683300;2023-07-29T08:01:07;20.40;90.20
2767;DHT22;1391;46.74287300;11.63683300;2023-07-29T08:03:35;20.50;79.80
2767;DHT22;1391;46.74287300;11.63683300;2023-07-29T08:06:03;20.20;78.80
2767;DHT22;1391;46.74287300;11.63683300;2023-07-29T08:08:30;20.70;91.30
2767;DHT22;1391;46.74287300;11.63683300;2023-07-29T08:10:58;20.90;75.20
2767;DHT22;1391;46.74287300;11.63683300;2023-07-29T08:13:25;20.90;76.30
2767;DHT22;1391;46.74287300;11.63683300;2023-07-29T08:15:54;20.30;74.60
2767;DHT22;1391;46.74287300;11.63683300;2023-07-29T08:18:21;20.20;76.30
2767;DHT22;1391;46.74287300;11.63683300;2023-07-29T08:20:52;20.30;76.00
2767;DHT22;1391;46.74287300;11.63683300;2023-07-29T08:23:21;20.30;71.40
2767;DHT22;1391;46.74287300;11.63683300;2023-07-29T08:25:52;20.30;74.70
2767;DHT22;1391;46.74287300;11.63683300;2023-07-29T08:28:21;20.30;77.00
2767;DHT22;1391;46.74287300;11.63683300;2023-07-29T08:30:49;20.30;74.10
2767;DHT22;1391;46.74287300;11.63683300;2023-07-29T08:33:17;20.80;74.10
2767;DHT22;1391;46.74287300;11.63683300;2023-07-29T08:35:45;20.80;68.20
2767;DHT22;1391;46.74287300;11.63683300;2023-07-29T08:38:12;20.90;69.30
2767;DHT22;1391;46.74287300;11.63683300;2023-07-29T08:40:43;21.10;78.20
2767;DHT22;1391;46.74287300;11.63683300;2023-07-29T08:43:14;21.00;67.80
2767;DHT22;1391;46.74287300;11.63683300;2023-07-29T08:45:44;21.90;86.50
2767;DHT22;1391;46.74287300;11.63683300;2023-07-29T08:48:13;22.10;67.10
2767;DHT22;1391;46.74287300;11.63683300;2023-07-29T08:50:44;21.80;86.10
2767;DHT22;1391;46.74287300;11.63683300;2023-07-29T08:53:12;21.10;64.60
2767;DHT22;1391;46.74287300;11.63683300;2023-07-29T08:55:40;21.00;65.00
2767;DHT22;1391;46.74287300;11.63683300;2023-07-29T08:58:07;21.00;68.20
2767;DHT22;1391;46.74287300;11.63683300;2023-07-29T09:00:34;21.00;68.30
2767;DHT22;1391;46.74287300;11.63683300;2023-07-29T09:03:02;21.00;70.00
2767;DHT22;1391;46.74287300;11.63683300;2023-07-29T09:05:34;21.00;74.60
2767;DHT22;1391;46.74287300;11.63683300;2023-07-29T09:08:02;22.00;78.40
2767;DHT22;1391;46.74287300;11.63683300;2023-07-29T09:10:35;21.60;67.40
2767;DHT22;1391;46.74287300;11.63683300;2023-07-29T09:13:03;21.10;64.10
2767;DHT22;1391;46.74287300;11.63683300;2023-07-29T09:15:32;21.10;67.50
2767;DHT22;1391;46.74287300;11.63683300;2023-07-29T09:18:10;21.00;70.80
2767;DHT22;1391;46.74287300;11.63683300;2023-07-29T09:20:39;21.10;62.70
2767;DHT22;1391;46.74287300;11.63683300;2023-07-29T09:23:08;21.10;62.40
2767;DHT22;1391;46.74287300;11.63683300;2023-07-29T09:25:37;21.60;62.90
2767;DHT22;1391;46.74287300;11.63683300;2023-07-29T09:28:08;21.70;62.10
2767;DHT22;1391;46.74287300;11.63683300;2023-07-29T09:30:38;22.00;65.00
2767;DHT22;1391;46.74287300;11.63683300;2023-07-29T09:33:06;22.50;67.40
2767;DHT22;1391;46.74287300;11.63683300;2023-07-29T09:35:35;22.60;62.70
2767;DHT22;1391;46.74287300;11.63683300;2023-07-29T09:38:05;22.00;58.20
2767;DHT22;1391;46.74287300;11.63683300;2023-07-29T09:40:38;21.70;62.80
2767;DHT22;1391;46.74287300;11.63683300;2023-07-29T09:43:07;21.80;64.20
2767;DHT22;1391;46.74287300;11.63683300;2023-07-29T09:45:36;22.00;62.80
2767;DHT22;1391;46.74287300;11.63683300;2023-07-29T09:48:04;22.80;56.90
2767;DHT22;1391;46.74287300;11.63683300;2023-07-29T09:50:35;23.40;54.20
2767;DHT22;1391;46.74287300;11.63683300;2023-07-29T09:53:02;22.70;52.60
2767;DHT22;1391;46.74287300;11.63683300;2023-07-29T09:55:33;23.30;50.90
2767;DHT22;1391;46.74287300;11.63683300;2023-07-29T09:58:01;23.30;66.60
2767;DHT22;1391;46.74287300;11.63683300;2023-07-29T10:00:32;22.50;47.50
2767;DHT22;1391;46.74287300;11.63683300;2023-07-29T10:03:00;22.70;47.80
2767;DHT22;1391;46.74287300;11.63683300;2023-07-29T10:05:28;23.30;56.70
2767;DHT22;1391;46.74287300;11.63683300;2023-07-29T10:07:56;23.60;52.60
2767;DHT22;1391;46.74287300;11.63683300;2023-07-29T10:10:24;23.60;43.00
2767;DHT22;1391;46.74287300;11.63683300;2023-07-29T10:12:53;23.50;48.10
2767;DHT22;1391;46.74287300;11.63683300;2023-07-29T10:15:21;23.50;50.40
2767;DHT22;1391;46.74287300;11.63683300;2023-07-29T10:17:50;24.10;48.00
2767;DHT22;1391;46.74287300;11.63683300;2023-07-29T10:20:18;24.50;49.60
2767;DHT22;1391;46.74287300;11.63683300;2023-07-29T10:22:47;24.30;44.00
2767;DHT22;1391;46.74287300;11.63683300;2023-07-29T10:25:17;24.30;40.60
2767;DHT22;1391;46.74287300;11.63683300;2023-07-29T10:27:48;24.30;42.10
2767;DHT22;1391;46.74287300;11.63683300;2023-07-29T10:30:18;23.40;37.60
2767;DHT22;1391;46.74287300;11.63683300;2023-07-29T10:32:45;23.50;36.90
2767;DHT22;1391;46.74287300;11.63683300;2023-07-29T10:35:13;24.20;35.50
2767;DHT22;1391;46.74287300;11.63683300;2023-07-29T10:37:41;24.30;42.20
2767;DHT22;1391;46.74287300;11.63683300;2023-07-29T10:40:11;25.30;34.80
2767;DHT22;1391;46.74287300;11.63683300;2023-07-29T10:42:58;24.30;41.40
2767;DHT22;1391;46.74287300;11.63683300;2023-07-29T10:45:36;24.40;32.50
2767;DHT22;1391;46.74287300;11.63683300;2023-07-29T10:48:06;24.50;34.90
2767;DHT22;1391;46.74287300;11.63683300;2023-07-29T10:50:34;24.30;33.40
2767;DHT22;1391;46.74287300;11.63683300;2023-07-29T10:53:01;24.50;51.40
2767;DHT22;1391;46.74287300;11.63683300;2023-07-29T10:55:31;25.20;43.20
2767;DHT22;1391;46.74287300;11.63683300;2023-07-29T10:58:12;24.60;49.70
2767;DHT22;1391;46.74287300;11.63683300;2023-07-29T11:00:43;25.20;37.40
2767;DHT22;1391;46.74287300;11.63683300;2023-07-29T11:03:13;24.20;40.20
2767;DHT22;1391;46.74287300;11.63683300;2023-07-29T11:05:49;23.70;35.30
2767;DHT22;1391;46.74287300;11.63683300;2023-07-29T11:08:18;23.70;40.00
2767;DHT22;1391;46.74287300;11.63683300;2023-07-29T11:11:05;24.30;45.70
2767;DHT22;1391;46.74287300;11.63683300;2023-07-29T11:13:35;24.60;38.00
2767;DHT22;1391;46.74287300;11.63683300;2023-07-29T11:16:05;24.40;43.50
2767;DHT22;1391;46.74287300;11.63683300;2023-07-29T11:18:34;24.30;41.40
2767;DHT22;1391;46.74287300;11.63683300;2023-07-29T11:21:03;24.40;41.10
2767;DHT22;1391;46.74287300;11.63683300;2023-07-29T11:23:32;24.40;40.20
2767;DHT22;1391;46.74287300;11.63683300;2023-07-29T11:26:01;24.10;46.20
2767;DHT22;1391;46.74287300;11.63683300;2023-07-29T11:28:29;23.60;43.00
2767;DHT22;1391;46.74287300;11.63683300;2023-07-29T11:30:57;24.50;47.00
2767;DHT22;1391;46.74287300;11.63683300;2023-07-29T11:33:27;24.30;38.50
2767;DHT22;1391;46.74287300;11.63683300;2023-07-29T11:35:54;24.30;43.30
2767;DHT22;1391;46.74287300;11.63683300;2023-07-29T11:38:22;24.40;41.50
2767;DHT22;1391;46.74287300;11.63683300;2023-07-29T11:40:57;24.30;39.80
2767;DHT22;1391;46.74287300;11.63683300;2023-07-29T11:43:25;24.50;50.30
2767;DHT22;1391;46.74287300;11.63683300;2023-07-29T11:45:53;24.40;38.80
2767;DHT22;1391;46.74287300;11.63683300;2023-07-29T11:48:30;24.50;42.40
2767;DHT22;1391;46.74287300;11.63683300;2023-07-29T11:50:58;24.30;42.50
2767;DHT22;1391;46.74287300;11.63683300;2023-07-29T11:53:28;24.20;40.50
2767;DHT22;1391;46.74287300;11.63683300;2023-07-29T11:55:56;24.20;43.90
2767;DHT22;1391;46.74287300;11.63683300;2023-07-29T11:58:24;24.30;39.70
2767;DHT22;1391;46.74287300;11.63683300;2023-07-29T12:00:51;24.40;43.00
2767;DHT22;1391;46.74287300;11.63683300;2023-07-29T12:03:19;24.30;40.60
2767;DHT22;1391;46.74287300;11.63683300;2023-07-29T12:05:48;24.30;42.50
2767;DHT22;1391;46.74287300;11.63683300;2023-07-29T12:08:15;24.30;43.00
2767;DHT22;1391;46.74287300;11.63683300;2023-07-29T12:10:43;24.30;44.70
2767;DHT22;1391;46.74287300;11.63683300;2023-07-29T12:13:10;25.10;43.50
2767;DHT22;1391;46.74287300;11.63683300;2023-07-29T12:15:38;24.50;40.80
2767;DHT22;1391;46.74287300;11.63683300;2023-07-29T12:18:06;24.50;42.10
2767;DHT22;1391;46.74287300;11.63683300;2023-07-29T12:20:34;24.30;41.00
2767;DHT22;1391;46.74287300;11.63683300;2023-07-29T12:23:02;24.50;44.30
2767;DHT22;1391;46.74287300;11.63683300;2023-07-29T12:25:31;25.10;43.70
2767;DHT22;1391;46.74287300;11.63683300;2023-07-29T12:28:03;24.40;40.10
2767;DHT22;1391;46.74287300;11.63683300;2023-07-29T12:30:31;24.30;45.50
2767;DHT22;1391;46.74287300;11.63683300;2023-07-29T12:32:58;24.20;52.50
2767;DHT22;1391;46.74287300;11.63683300;2023-07-29T12:35:35;24.40;47.30
2767;DHT22;1391;46.74287300;11.63683300;2023-07-29T12:38:04;24.30;45.70
2767;DHT22;1391;46.74287300;11.63683300;2023-07-29T12:40:31;24.30;46.60
2767;DHT22;1391;46.74287300;11.63683300;2023-07-29T12:42:58;24.40;46.10
2767;DHT22;1391;46.74287300;11.63683300;2023-07-29T12:45:25;24.30;47.10
2767;DHT22;1391;46.74287300;11.63683300;2023-07-29T12:47:55;24.40;50.40
2767;DHT22;1391;46.74287300;11.63683300;2023-07-29T12:50:22;24.20;48.80
2767;DHT22;1391;46.74287300;11.63683300;2023-07-29T12:52:50;24.30;48.60
2767;DHT22;1391;46.74287300;11.63683300;2023-07-29T12:55:18;24.20;44.80
2767;DHT22;1391;46.74287300;11.63683300;2023-07-29T12:57:45;24.10;48.70
2767;DHT22;1391;46.74287300;11.63683300;2023-07-29T13:00:13;24.30;47.60
2767;DHT22;1391;46.74287300;11.63683300;2023-07-29T13:02:40;24.30;48.40
2767;DHT22;1391;46.74287300;11.63683300;2023-07-29T13:05:10;24.40;50.00
2767;DHT22;1391;46.74287300;11.63683300;2023-07-29T13:07:38;24.30;55.00
2767;DHT22;1391;46.74287300;11.63683300;2023-07-29T13:10:06;24.30;50.50
2767;DHT22;1391;46.74287300;11.63683300;2023-07-29T13:12:35;24.30;52.70
2767;DHT22;1391;46.74287300;11.63683300;2023-07-29T13:15:03;24.50;45.90
2767;DHT22;1391;46.74287300;11.63683300;2023-07-29T13:17:31;25.30;49.70
2767;DHT22;1391;46.74287300;11.63683300;2023-07-29T13:19:58;25.30;48.20
2767;DHT22;1391;46.74287300;11.63683300;2023-07-29T13:22:26;25.30;46.00
2767;DHT22;1391;46.74287300;11.63683300;2023-07-29T13:24:53;25.40;40.60
2767;DHT22;1391;46.74287300;11.63683300;2023-07-29T13:27:20;25.50;43.10
2767;DHT22;1391;46.74287300;11.63683300;2023-07-29T13:29:49;25.50;45.80
2767;DHT22;1391;46.74287300;11.63683300;2023-07-29T13:32:16;25.80;43.00
2767;DHT22;1391;46.74287300;11.63683300;2023-07-29T13:34:43;25.60;42.70
2767;DHT22;1391;46.74287300;11.63683300;2023-07-29T13:37:10;26.10;41.40
2767;DHT22;1391;46.74287300;11.63683300;2023-07-29T13:39:38;26.10;42.50
2767;DHT22;1391;46.74287300;11.63683300;2023-07-29T13:42:05;26.30;39.50